Time;durP1;ratioP1;P1;durP2;ratioP2;P2;SDS_P1;SDS_P2;PMS_P1;PMS_P2;Temp;Humidity;BMP_temperature;BMP_pressure;BME280_temperature;BME280_humidity;BME280_pressure;Samples;Min_cycle;Max_cycle;Signal;HPM_P1;HPM_P2
2021/06/23 00:02:47;;;;;;;4.50;2.40;;;;;;;15.61;91.88;99339.53;1995499;79;21265;-72
2021/06/23 00:05:50;;;;;;;6.53;2.46;;;;;;;15.57;92.01;99329.16;1996485;81;20194;-71
2021/06/23 00:08:52;;;;;;;7.01;2.14;;;;;;;15.60;92.30;99334.34;1996933;81;20182;-72
2021/06/23 00:11:57;;;;;;;2.79;2.41;;;;;;;15.64;92.42;99330.75;1997016;81;20178;-72
2021/06/23 00:15:00;;;;;;;5.04;2.40;;;;;;;15.68;92.39;99335.00;1996202;81;20182;-72
2021/06/23 00:18:15;;;;;;;7.03;2.95;;;;;;;15.73;92.62;99338.38;1986402;79;20193;-72
2021/06/23 00:21:18;;;;;;;5.13;2.44;;;;;;;15.75;92.52;99339.19;1986398;81;20267;-71
2021/06/23 00:24:20;;;;;;;5.82;2.50;;;;;;;15.70;92.39;99330.59;1986925;81;20273;-71
2021/06/23 00:27:23;;;;;;;6.71;3.10;;;;;;;15.73;92.81;99340.13;1986366;81;20692;-72
2021/06/23 00:30:26;;;;;;;7.69;2.83;;;;;;;15.79;92.92;99343.44;1985423;80;20915;-71
2021/06/23 00:33:31;;;;;;;6.50;3.60;;;;;;;15.80;92.92;99353.03;1987682;81;20309;-71
2021/06/23 00:36:34;;;;;;;3.54;3.03;;;;;;;15.84;93.02;99345.94;1986821;81;20609;-71
2021/06/23 00:39:36;;;;;;;4.50;3.89;;;;;;;15.90;93.13;99349.25;1986300;81;20176;-72
2021/06/23 00:42:42;;;;;;;4.95;4.43;;;;;;;15.90;92.92;99351.00;1986131;81;20209;-71
2021/06/23 00:45:45;;;;;;;7.95;5.35;;;;;;;15.91;93.02;99363.19;1987597;81;21159;-74
2021/06/23 00:48:55;;;;;;;9.23;4.46;;;;;;;15.96;92.76;99364.78;1999400;81;20197;-71
2021/06/23 00:52:02;;;;;;;7.86;4.66;;;;;;;16.04;92.60;99366.38;1995980;81;20192;-72
2021/06/23 00:55:05;;;;;;;10.11;4.54;;;;;;;16.06;92.49;99373.28;1996618;81;20527;-71
2021/06/23 00:58:09;;;;;;;6.26;5.49;;;;;;;16.09;92.50;99377.56;1997600;81;20629;-73
2021/06/23 01:01:11;;;;;;;11.11;5.68;;;;;;;16.11;92.42;99386.25;1994357;78;20206;-71
2021/06/23 01:04:14;;;;;;;7.16;6.56;;;;;;;16.14;92.36;99386.16;1991949;81;20211;-71
2021/06/23 01:07:18;;;;;;;9.98;7.82;;;;;;;16.17;92.09;99375.63;1990741;81;20167;-71
2021/06/23 01:10:21;;;;;;;10.96;8.76;;;;;;;16.18;91.61;99375.56;1990890;81;20171;-71
2021/06/23 01:13:27;;;;;;;11.96;8.31;;;;;;;16.19;91.09;99369.44;1991268;81;20207;-71
2021/06/23 01:16:34;;;;;;;9.25;8.39;;;;;;;16.20;90.77;99372.91;1993367;78;20746;-71
2021/06/23 01:19:43;;;;;;;10.11;9.20;;;;;;;16.20;90.41;99370.28;1996613;81;20284;-73
2021/06/23 01:22:46;;;;;;;;;;;;;;;16.20;90.11;99365.03;1996949;81;20741;-72
2021/06/23 01:25:50;;;;;;;10.45;8.45;;;;;;;16.19;89.89;99371.19;1996509;81;20159;-71
2021/06/23 01:28:53;;;;;;;11.77;9.20;;;;;;;16.19;89.74;99371.19;1996816;81;20242;-71
2021/06/23 01:31:55;;;;;;;9.88;8.96;;;;;;;16.18;89.71;99372.94;1992818;79;20224;-71
2021/06/23 01:34:59;;;;;;;10.40;9.27;;;;;;;16.18;89.68;99372.09;1991697;81;20822;-72
2021/06/23 01:38:04;;;;;;;11.60;9.38;;;;;;;16.19;89.54;99374.66;1991297;81;20196;-71
2021/06/23 01:41:06;;;;;;;10.51;9.55;;;;;;;16.21;89.48;99383.34;1990712;81;20223;-71
2021/06/23 01:44:09;;;;;;;12.27;9.95;;;;;;;16.20;89.37;99372.91;1991006;81;20211;-72
2021/06/23 01:47:12;;;;;;;14.80;10.89;;;;;;;16.20;89.38;99360.66;1994664;81;20647;-71
2021/06/23 01:50:14;;;;;;;12.36;11.04;;;;;;;16.21;89.09;99362.38;1996640;81;20174;-71
2021/06/23 01:53:17;;;;;;;11.36;10.29;;;;;;;16.19;89.26;99360.72;1996287;81;20191;-72
2021/06/23 01:56:20;;;;;;;11.99;10.79;;;;;;;16.20;89.34;99358.03;1996724;81;20237;-71
2021/06/23 01:59:23;;;;;;;12.18;10.44;;;;;;;16.23;89.18;99362.34;1996654;81;20244;-71
2021/06/23 02:02:30;;;;;;;11.86;10.77;;;;;;;16.22;89.20;99364.09;1992205;79;20175;-71
2021/06/23 02:05:49;;;;;;;11.96;10.74;;;;;;;16.25;89.04;99365.78;1992903;81;20246;-72
2021/06/23 02:09:11;;;;;;;;;;;;;;;16.24;88.91;99351.81;1993015;81;20175;-71
2021/06/23 02:12:25;;;;;;;11.71;10.48;;;;;;;16.23;88.95;99355.34;1992886;81;20249;-71
2021/06/23 02:15:28;;;;;;;12.34;10.52;;;;;;;16.24;88.96;99354.44;1991538;79;22288;-71
2021/06/23 02:18:31;;;;;;;12.13;10.66;;;;;;;16.26;88.92;99351.75;1993070;81;20301;-71
2021/06/23 02:21:38;;;;;;;11.35;10.15;;;;;;;16.24;89.19;99349.19;1992395;81;20662;-71
2021/06/23 02:24:41;;;;;;;10.20;9.20;;;;;;;16.22;89.33;99344.91;1992705;81;20187;-72
2021/06/23 02:27:44;;;;;;;9.98;9.04;;;;;;;16.23;89.04;99350.09;1991660;81;20572;-71
2021/06/23 02:30:47;;;;;;;13.96;9.89;;;;;;;16.23;89.12;99346.63;1992999;78;21320;-71
2021/06/23 02:33:54;;;;;;;10.41;9.27;;;;;;;16.22;89.07;99348.38;1997883;81;20214;-72
2021/06/23 02:36:58;;;;;;;12.07;9.39;;;;;;;16.22;89.10;99352.75;1997568;81;20726;-72
2021/06/23 02:40:02;;;;;;;11.07;7.90;;;;;;;16.23;89.08;99357.97;1997237;81;20208;-71
2021/06/23 02:43:06;;;;;;;9.01;8.15;;;;;;;16.19;89.23;99360.72;1998364;81;20255;-71
2021/06/23 02:46:08;;;;;;;9.75;8.10;;;;;;;16.15;89.75;99359.91;1995781;78;21070;-71
2021/06/23 02:49:11;;;;;;;10.13;8.66;;;;;;;16.10;89.83;99356.56;1995855;81;20230;-72
2021/06/23 02:52:18;;;;;;;13.81;8.18;;;;;;;16.07;90.33;99367.13;1992901;81;20717;-71
2021/06/23 02:55:21;;;;;;;9.11;8.24;;;;;;;16.05;90.69;99358.47;1993425;81;20218;-72
2021/06/23 02:58:24;;;;;;;14.45;8.75;;;;;;;16.04;90.79;99369.84;1992542;81;20192;-71
2021/06/23 03:01:27;;;;;;;11.24;8.56;;;;;;;15.95;90.83;99376.16;1992381;78;20400;-71
2021/06/23 03:04:31;;;;;;;12.49;8.79;;;;;;;15.92;91.04;99376.25;1992212;81;20765;-71
2021/06/23 03:07:34;;;;;;;14.20;8.55;;;;;;;15.93;91.35;99371.88;1992013;81;20205;-72
2021/06/23 03:10:37;;;;;;;10.07;8.15;;;;;;;15.95;91.25;99372.69;1992106;81;20191;-71
2021/06/23 03:13:39;;;;;;;10.45;7.97;;;;;;;15.92;91.27;99371.00;1991666;81;20302;-72
2021/06/23 03:16:42;;;;;;;15.06;8.18;;;;;;;15.93;91.47;99374.50;1991769;79;20215;-71
2021/06/23 03:19:44;;;;;;;9.41;7.84;;;;;;;15.91;91.44;99374.53;1991363;81;20201;-72
2021/06/23 03:22:48;;;;;;;10.38;8.45;;;;;;;15.90;91.45;99377.19;1992347;81;20187;-71
2021/06/23 03:25:50;;;;;;;8.99;8.04;;;;;;;15.88;91.61;99373.75;1992149;81;20661;-71
2021/06/23 03:28:53;;;;;;;11.55;8.36;;;;;;;15.93;91.65;99374.50;1991664;81;20163;-72
2021/06/23 03:31:56;;;;;;;9.90;8.16;;;;;;;15.96;91.46;99383.13;1994380;78;20779;-71
2021/06/23 03:34:59;;;;;;;9.51;8.32;;;;;;;15.93;91.24;99384.97;1997051;81;20614;-71
2021/06/23 03:38:02;;;;;;;8.77;7.82;;;;;;;15.90;91.16;99382.44;1997233;81;20182;-72
2021/06/23 03:41:05;;;;;;;8.54;7.80;;;;;;;15.89;91.40;99383.34;1996387;81;20174;-71
2021/06/23 03:44:07;;;;;;;10.85;7.80;;;;;;;15.89;91.24;99388.56;1996695;81;20819;-71
2021/06/23 03:47:11;;;;;;;9.64;7.99;;;;;;;15.81;91.31;99391.41;1992040;79;20439;-71
2021/06/23 03:50:16;;;;;;;11.60;8.30;;;;;;;15.78;91.54;99395.84;1991884;81;20208;-72
2021/06/23 03:53:19;;;;;;;10.46;8.79;;;;;;;15.75;91.68;99391.53;1992335;81;20179;-71
2021/06/23 03:56:22;;;;;;;8.95;7.97;;;;;;;15.77;91.68;99407.22;1991295;81;20650;-72
2021/06/23 03:59:24;;;;;;;10.41;8.60;;;;;;;15.68;91.68;99406.56;1991434;81;20529;-71
2021/06/23 04:02:27;;;;;;;8.93;8.01;;;;;;;15.63;91.89;99407.56;1995098;79;20991;-71
2021/06/23 04:05:29;;;;;;;11.01;7.99;;;;;;;15.66;91.91;99407.50;1997165;81;20235;-71
2021/06/23 04:08:32;;;;;;;13.35;8.63;;;;;;;15.64;92.08;99409.28;1996993;81;20178;-71
2021/06/23 04:11:34;;;;;;;9.43;8.44;;;;;;;15.67;92.21;99414.44;1996573;81;20254;-72
2021/06/23 04:14:38;;;;;;;9.68;7.76;;;;;;;15.69;92.29;99412.66;1996884;81;20808;-71
2021/06/23 04:17:41;;;;;;;12.84;8.14;;;;;;;15.75;92.45;99411.63;1991236;78;20713;-71
2021/06/23 04:20:43;;;;;;;8.95;7.78;;;;;;;15.79;92.48;99421.13;1991642;81;20318;-71
2021/06/23 04:23:46;;;;;;;9.13;8.27;;;;;;;15.85;92.63;99420.97;1991894;81;20187;-71
2021/06/23 04:26:49;;;;;;;10.90;8.27;;;;;;;15.94;92.70;99421.59;1991674;81;20186;-71
2021/06/23 04:29:52;;;;;;;13.66;8.40;;;;;;;16.05;92.61;99423.94;1992472;81;20195;-72
2021/06/23 04:32:54;;;;;;;9.61;8.27;;;;;;;16.12;92.44;99422.88;1995165;78;20248;-71
2021/06/23 04:35:57;;;;;;;9.21;8.25;;;;;;;16.17;92.09;99421.00;1997051;81;20222;-73
2021/06/23 04:38:59;;;;;;;9.31;8.14;;;;;;;16.21;91.73;99420.03;1996190;81;20208;-72
2021/06/23 04:42:02;;;;;;;7.70;7.00;;;;;;;16.22;91.04;99416.50;1996385;81;20191;-72
2021/06/23 04:45:07;;;;;;;8.19;7.38;;;;;;;16.25;90.61;99415.56;1995793;81;20654;-73
2021/06/23 04:48:10;;;;;;;10.21;8.49;;;;;;;16.28;90.28;99420.69;1991504;79;22737;-72
2021/06/23 04:51:15;;;;;;;8.54;7.72;;;;;;;16.31;90.02;99425.84;1991878;81;20589;-72
2021/06/23 04:54:17;;;;;;;16.11;8.48;;;;;;;16.35;89.76;99435.38;1992521;81;20587;-73
2021/06/23 04:57:21;;;;;;;9.77;8.32;;;;;;;16.39;89.58;99442.25;1992005;81;20640;-73
2021/06/23 05:00:24;;;;;;;9.27;7.88;;;;;;;16.40;88.89;99450.97;1991499;78;20748;-72
2021/06/23 05:03:27;;;;;;;8.64;7.63;;;;;;;16.44;88.76;99460.47;1996615;81;20163;-72
2021/06/23 05:06:30;;;;;;;8.06;7.36;;;;;;;16.46;88.59;99450.78;1996152;81;20194;-73
2021/06/23 05:09:33;;;;;;;8.98;7.89;;;;;;;16.46;88.25;99449.03;1996412;81;20639;-72
2021/06/23 05:12:36;;;;;;;10.80;8.21;;;;;;;16.50;87.79;99447.19;1996599;81;20672;-72
2021/06/23 05:15:39;;;;;;;7.85;7.22;;;;;;;16.51;87.62;99443.66;1994229;78;20627;-74
2021/06/23 05:18:41;;;;;;;12.45;7.68;;;;;;;16.53;87.46;99441.88;1991858;81;20211;-73
2021/06/23 05:21:44;;;;;;;8.41;7.16;;;;;;;16.55;87.29;99450.56;1991048;81;20178;-73
2021/06/23 05:24:47;;;;;;;8.74;7.34;;;;;;;16.57;87.13;99444.38;1991917;81;20312;-73
2021/06/23 05:27:49;;;;;;;10.19;7.43;;;;;;;16.63;87.16;99451.19;1991921;81;20175;-74
2021/06/23 05:30:52;;;;;;;11.43;7.19;;;;;;;16.67;87.14;99450.22;1990640;79;23355;-73
2021/06/23 05:33:55;;;;;;;7.56;6.79;;;;;;;16.73;87.36;99463.19;1990916;81;20230;-73
2021/06/23 05:36:57;;;;;;;14.39;7.85;;;;;;;16.77;87.18;99456.94;1988830;81;20205;-73
2021/06/23 05:40:00;;;;;;;8.79;7.79;;;;;;;16.82;87.15;99455.03;1990561;81;20208;-73
2021/06/23 05:43:03;;;;;;;7.56;6.85;;;;;;;16.86;86.72;99454.03;1991703;81;20308;-74
2021/06/23 05:46:06;;;;;;;7.95;7.11;;;;;;;16.90;86.77;99455.69;1992447;79;23845;-73
2021/06/23 05:49:08;;;;;;;10.40;7.44;;;;;;;16.94;86.63;99456.47;1996381;81;20202;-73
2021/06/23 05:52:11;;;;;;;9.00;7.68;;;;;;;16.98;86.27;99454.59;1996598;81;20272;-74
2021/06/23 05:55:20;;;;;;;8.11;7.30;;;;;;;17.00;85.78;99458.88;1997102;81;20196;-73
2021/06/23 05:58:24;;;;;;;9.55;7.19;;;;;;;17.05;85.60;99459.59;1997240;81;20242;-73
2021/06/23 06:01:26;;;;;;;9.10;7.39;;;;;;;17.05;85.36;99464.00;1992078;79;20182;-73
2021/06/23 06:04:29;;;;;;;8.91;6.80;;;;;;;17.08;85.29;99471.81;1989495;81;20639;-73
2021/06/23 06:07:31;;;;;;;10.95;7.09;;;;;;;17.06;84.68;99474.47;1989181;81;20191;-73
2021/06/23 06:10:35;;;;;;;10.00;7.53;;;;;;;17.08;84.61;99479.66;1989701;81;20179;-73
2021/06/23 06:13:37;;;;;;;9.11;6.80;;;;;;;17.07;84.43;99478.81;1989249;81;20606;-73
2021/06/23 06:16:40;;;;;;;8.65;6.88;;;;;;;17.09;84.30;99484.00;1991335;78;20327;-73
2021/06/23 06:19:42;;;;;;;7.41;6.71;;;;;;;17.11;84.27;99484.81;1995727;81;20814;-72
2021/06/23 06:22:45;;;;;;;7.01;6.15;;;;;;;17.16;84.31;99493.41;1994842;81;20333;-73
2021/06/23 06:25:47;;;;;;;6.35;5.56;;;;;;;17.19;84.18;99490.69;1995476;81;20820;-74
2021/06/23 06:28:50;;;;;;;5.70;5.26;;;;;;;17.25;83.64;99492.28;1996446;81;20174;-73
2021/06/23 06:31:53;;;;;;;5.76;5.25;;;;;;;17.32;83.29;99494.69;1993421;79;54002;-73
2021/06/23 06:34:55;;;;;;;6.81;5.70;;;;;;;17.36;82.83;99490.19;1992513;81;20847;-74
2021/06/23 06:38:00;;;;;;;6.69;5.69;;;;;;;17.41;82.99;99489.13;1991970;81;20184;-73
2021/06/23 06:41:03;;;;;;;8.29;6.50;;;;;;;17.46;82.60;99484.63;1992471;81;20489;-73
2021/06/23 06:44:05;;;;;;;9.02;5.22;;;;;;;17.55;82.37;99487.84;1992642;81;20723;-73
2021/06/23 06:47:08;;;;;;;9.84;5.45;;;;;;;17.61;82.09;99487.69;1994734;78;20473;-73
2021/06/23 06:50:11;;;;;;;5.89;5.16;;;;;;;17.70;81.82;99493.53;1997445;81;20196;-73
2021/06/23 06:53:13;;;;;;;9.00;5.10;;;;;;;17.79;81.45;99500.25;1996679;81;20286;-73
2021/06/23 06:56:16;;;;;;;4.68;4.28;;;;;;;17.88;81.16;99497.31;1997617;81;20255;-73
2021/06/23 06:59:19;;;;;;;5.63;4.30;;;;;;;17.98;80.92;99497.91;1997221;81;20170;-73
2021/06/23 07:02:22;;;;;;;5.09;4.57;;;;;;;18.05;80.24;99502.88;1996487;78;20368;-73
2021/06/23 07:05:24;;;;;;;4.97;4.57;;;;;;;18.11;79.03;99499.19;1997655;81;20226;-79
2021/06/23 07:08:27;;;;;;;5.78;3.76;;;;;;;18.17;78.56;99506.88;1997127;81;20182;-73
2021/06/23 07:11:29;;;;;;;3.80;3.50;;;;;;;18.20;78.32;99517.28;1997471;81;20182;-77
2021/06/23 07:14:32;;;;;;;4.43;4.01;;;;;;;18.23;77.75;99524.22;1997929;81;20179;-74
2021/06/23 07:17:35;;;;;;;5.31;3.41;;;;;;;18.22;77.49;99520.72;1990453;81;21547;-74
2021/06/23 07:20:38;;;;;;;3.34;3.03;;;;;;;18.21;77.37;99521.63;1995715;81;20277;-74
2021/06/23 07:23:40;;;;;;;4.56;3.26;;;;;;;18.21;77.38;99526.03;1992464;81;20197;-73
2021/06/23 07:26:43;;;;;;;3.55;3.25;;;;;;;18.27;77.42;99528.44;1992048;81;20171;-75
2021/06/23 07:29:46;;;;;;;3.33;3.11;;;;;;;18.29;77.12;99529.25;1992433;81;20189;-73
2021/06/23 07:39:16;;;;;;;4.66;3.19;;;;;;;18.36;76.23;99539.53;1996852;81;20766;-74
2021/06/23 07:42:19;;;;;;;6.57;2.90;;;;;;;18.45;76.92;99533.09;1996831;81;20234;-74
2021/06/23 07:45:22;;;;;;;2.58;2.38;;;;;;;18.52;76.39;99523.22;1995445;79;20267;-73
2021/06/23 07:48:36;;;;;;;6.40;2.54;;;;;;;18.61;76.38;99522.91;1991764;81;20191;-74
2021/06/23 07:55:03;;;;;;;3.34;2.70;;;;;;;18.82;75.63;99531.84;1991476;81;20933;-72
2021/06/23 08:08:19;;;;;;;3.24;2.91;;;;;;;18.99;74.09;99538.19;1991598;81;20191;-72
2021/06/23 08:11:34;;;;;;;2.70;2.34;;;;;;;19.06;73.84;99541.50;1991589;81;20179;-72
2021/06/23 08:14:37;;;;;;;2.88;2.16;;;;;;;19.14;73.96;99534.16;1991694;81;20495;-72
2021/06/23 08:17:40;;;;;;;2.86;2.60;;;;;;;19.28;74.06;99529.25;1994955;78;20202;-73
2021/06/23 08:20:43;;;;;;;6.39;2.55;;;;;;;19.39;73.02;99533.22;1997325;81;21097;-72
2021/06/23 08:23:46;;;;;;;2.50;2.00;;;;;;;19.47;71.99;99537.31;1996456;81;20182;-72
2021/06/23 08:26:49;;;;;;;2.96;1.98;;;;;;;19.62;71.82;99533.25;1997052;81;20646;-72
2021/06/23 08:29:52;;;;;;;5.39;2.42;;;;;;;19.78;72.22;99536.16;1997394;81;20522;-73
2021/06/23 08:32:58;;;;;;;4.85;2.51;;;;;;;19.96;71.46;99535.41;1991669;78;37680;-73
2021/06/23 08:36:01;;;;;;;4.20;2.41;;;;;;;20.12;70.13;99535.66;1991756;81;20174;-73
2021/06/23 08:39:04;;;;;;;1.91;1.81;;;;;;;20.26;68.88;99535.91;1991783;81;20199;-73
2021/06/23 08:42:08;;;;;;;2.35;1.80;;;;;;;20.42;68.72;99536.16;1991439;81;20175;-73
2021/06/23 08:45:11;;;;;;;2.76;1.88;;;;;;;20.56;67.82;99533.81;1991784;81;20239;-73
2021/06/23 08:48:14;;;;;;;2.85;2.21;;;;;;;20.94;67.63;99537.41;1985455;81;990660;-73
2021/06/23 08:51:18;;;;;;;2.51;2.31;;;;;;;21.29;66.32;99535.00;1996824;81;20174;-72
2021/06/23 08:54:21;;;;;;;3.55;3.11;;;;;;;21.42;64.24;99536.16;1997178;81;20192;-72
2021/06/23 08:57:23;;;;;;;6.10;2.66;;;;;;;21.58;63.08;99534.50;1996141;81;20305;-72
2021/06/23 09:00:26;;;;;;;2.99;1.89;;;;;;;21.66;63.76;99534.13;1995155;79;21069;-73
2021/06/23 09:03:29;;;;;;;3.28;1.55;;;;;;;21.71;64.26;99532.13;1991492;81;20171;-73
2021/06/23 09:06:57;;;;;;;3.63;1.50;;;;;;;21.61;63.68;99533.50;1991115;81;20175;-72
2021/06/23 09:09:59;;;;;;;3.45;1.74;;;;;;;21.53;64.22;99536.50;1992025;81;20833;-72
2021/06/23 09:13:08;;;;;;;3.00;1.39;;;;;;;21.49;64.19;99534.94;1991108;81;20175;-73
2021/06/23 09:16:11;;;;;;;3.65;1.35;;;;;;;21.49;64.13;99534.94;1992513;78;22454;-72
2021/06/23 09:19:31;;;;;;;3.76;1.86;;;;;;;21.47;64.07;99522.72;1996930;81;20202;-73
2021/06/23 09:22:45;;;;;;;4.10;2.06;;;;;;;21.24;63.90;99529.03;1996884;81;20192;-73
2021/06/23 09:25:48;;;;;;;3.40;1.70;;;;;;;21.09;65.49;99526.16;1996585;81;20212;-73
2021/06/23 09:29:17;;;;;;;2.85;1.54;;;;;;;21.06;65.20;99526.31;1996385;81;20234;-74
2021/06/23 09:32:21;;;;;;;2.95;1.40;;;;;;;21.19;66.14;99517.84;1992049;79;20196;-76
2021/06/23 09:35:27;;;;;;;6.43;1.30;;;;;;;21.30;66.00;99516.44;1991856;81;20355;-74
2021/06/23 09:38:43;;;;;;;0.98;0.94;;;;;;;21.47;64.40;99515.66;1988961;81;20198;-74
2021/06/23 09:41:47;;;;;;;2.33;1.00;;;;;;;21.67;62.52;99512.91;1991474;81;20627;-73
2021/06/23 09:45:06;;;;;;;1.55;0.95;;;;;;;21.94;61.39;99515.19;1990876;81;20200;-73
2021/06/23 09:48:09;;;;;;;1.49;0.94;;;;;;;22.10;59.86;99508.22;1986574;79;22157;-73
2021/06/23 09:51:20;;;;;;;3.05;1.10;;;;;;;22.23;59.24;99517.25;1986537;81;20590;-73
2021/06/23 09:54:30;;;;;;;1.66;0.90;;;;;;;22.35;58.11;99522.88;1986938;81;20567;-74
2021/06/23 09:57:39;;;;;;;1.59;0.99;;;;;;;22.65;58.47;99510.72;1985937;81;20201;-73
2021/06/23 10:01:01;;;;;;;3.61;1.15;;;;;;;23.19;57.59;99508.75;1987632;79;20983;-73
2021/06/23 10:04:08;;;;;;;2.14;1.00;;;;;;;24.09;56.28;99501.06;1996305;81;20811;-74
2021/06/23 10:07:10;;;;;;;0.96;0.94;;;;;;;24.65;53.56;99502.19;1995987;81;20239;-73
2021/06/23 10:10:20;;;;;;;1.86;1.00;;;;;;;24.81;51.79;99508.28;1996437;81;20174;-74
2021/06/23 10:13:23;;;;;;;2.76;0.80;;;;;;;24.71;52.87;99504.47;1995867;81;20706;-74
2021/06/23 10:16:28;;;;;;;2.63;0.90;;;;;;;24.54;52.60;99505.47;1993817;79;22489;-72
2021/06/23 10:19:32;;;;;;;2.61;0.98;;;;;;;24.23;51.17;99501.09;1991233;81;20185;-73
2021/06/23 10:22:35;;;;;;;4.26;0.79;;;;;;;23.75;50.78;99495.03;1991250;81;20183;-74
2021/06/23 10:25:38;;;;;;;0.84;0.60;;;;;;;23.63;52.80;99492.22;1991436;81;20191;-74
2021/06/23 10:28:41;;;;;;;1.98;0.69;;;;;;;24.17;53.13;99490.00;1991250;81;20200;-73
2021/06/23 10:31:45;;;;;;;3.66;0.90;;;;;;;24.91;51.27;99492.63;1989331;78;20204;-73
2021/06/23 10:34:48;;;;;;;2.92;1.20;;;;;;;25.13;50.63;99487.69;1996151;81;20234;-74
2021/06/23 10:37:52;;;;;;;4.65;0.75;;;;;;;24.61;50.80;99485.59;1996672;81;21294;-72
2021/06/23 10:40:57;;;;;;;0.85;0.80;;;;;;;24.36;54.25;99488.00;1997266;81;20179;-73
2021/06/23 10:44:18;;;;;;;0.64;0.64;;;;;;;23.85;52.90;99483.91;1995548;81;20196;-73
2021/06/23 10:48:00;;;;;;;2.49;0.80;;;;;;;23.63;53.90;99494.88;1991575;78;22870;-74
2021/06/23 10:51:22;;;;;;;1.27;0.80;;;;;;;23.49;55.61;99488.50;1988325;81;20221;-73
2021/06/23 10:54:27;;;;;;;1.84;0.80;;;;;;;23.28;56.27;99492.34;1991356;81;20329;-73
2021/06/23 10:57:40;;;;;;;2.36;0.75;;;;;;;23.34;56.22;99485.84;1991760;81;20298;-73
2021/06/23 11:00:46;;;;;;;1.67;0.80;;;;;;;23.41;55.30;99493.41;1990141;79;20179;-73
2021/06/23 11:03:59;;;;;;;1.05;0.73;;;;;;;23.40;55.88;99490.81;1991815;81;20230;-73
2021/06/23 11:07:03;;;;;;;3.44;0.90;;;;;;;23.38;54.14;99498.88;1991836;81;20222;-72
2021/06/23 11:10:12;;;;;;;4.18;0.70;;;;;;;23.49;54.83;99504.41;1991664;81;20289;-73
2021/06/23 11:13:20;;;;;;;1.05;0.70;;;;;;;23.83;54.31;99494.59;1992191;81;20667;-73
2021/06/23 11:16:31;;;;;;;2.46;0.70;;;;;;;24.48;53.54;99489.06;1993165;81;22098;-74
2021/06/23 11:19:38;;;;;;;0.94;0.80;;;;;;;24.81;50.47;99488.84;1997081;81;20363;-73
2021/06/23 11:22:41;;;;;;;2.66;0.76;;;;;;;25.21;49.01;99492.56;1996753;81;20183;-74
2021/06/23 11:25:43;;;;;;;3.90;0.79;;;;;;;25.85;51.36;99496.41;1996729;81;20323;-74
2021/06/23 11:28:48;;;;;;;1.61;0.80;;;;;;;26.39;46.74;99493.72;1997124;81;20194;-74
2021/06/23 11:32:06;;;;;;;1.94;0.70;;;;;;;26.33;45.92;99502.97;1991441;78;152079;-74
2021/06/23 11:35:11;;;;;;;1.61;0.70;;;;;;;26.00;46.75;99499.88;1992244;81;20345;-74
2021/06/23 11:38:14;;;;;;;0.81;0.68;;;;;;;25.59;47.64;99506.91;1991932;81;20220;-74
2021/06/23 11:41:16;;;;;;;3.22;0.60;;;;;;;25.27;48.78;99503.66;1990973;81;20187;-73
2021/06/23 11:44:19;;;;;;;0.60;0.60;;;;;;;25.02;49.50;99507.94;1991581;81;20755;-74
2021/06/23 11:47:32;;;;;;;2.80;0.66;;;;;;;24.82;50.19;99512.66;1990390;79;22288;-74
2021/06/23 11:50:35;;;;;;;1.77;0.77;;;;;;;24.63;50.50;99506.75;1992104;81;20225;-74
2021/06/23 11:53:39;;;;;;;0.88;0.70;;;;;;;24.32;50.25;99489.97;1991541;81;20789;-74
2021/06/23 11:56:42;;;;;;;1.58;0.56;;;;;;;24.10;51.12;99484.22;1990658;81;20200;-74
2021/06/23 11:59:44;;;;;;;0.75;0.60;;;;;;;24.00;51.99;99486.53;1990705;81;20195;-74
2021/06/23 12:02:47;;;;;;;1.92;0.56;;;;;;;24.20;51.68;99487.16;1995453;79;21321;-74
2021/06/23 12:05:50;;;;;;;3.20;0.50;;;;;;;24.75;49.98;99489.19;1996409;81;20200;-73
2021/06/23 12:08:53;;;;;;;0.60;0.50;;;;;;;25.12;49.58;99483.34;1996527;81;20204;-73
2021/06/23 12:11:55;;;;;;;1.50;0.64;;;;;;;25.58;48.76;99478.63;1997149;81;20228;-74
2021/06/23 12:14:58;;;;;;;1.08;0.60;;;;;;;26.08;49.95;99474.47;1996149;81;20311;-74
2021/06/23 12:18:03;;;;;;;1.66;0.50;;;;;;;26.53;46.77;99466.16;1985930;79;20242;-74
2021/06/23 12:21:06;;;;;;;1.31;0.55;;;;;;;26.86;44.95;99468.28;1986120;81;20205;-73
2021/06/23 12:24:09;;;;;;;2.00;1.79;;;;;;;26.93;43.77;99470.44;1986494;81;20221;-73
2021/06/23 12:27:12;;;;;;;3.15;1.41;;;;;;;27.06;42.11;99467.75;1986286;81;20180;-74
2021/06/23 12:30:14;;;;;;;1.61;1.06;;;;;;;27.02;42.11;99467.13;1986528;81;20394;-73
2021/06/23 12:33:17;;;;;;;1.40;1.00;;;;;;;27.03;41.78;99466.16;1997090;79;20284;-73
2021/06/23 12:36:20;;;;;;;0.80;0.70;;;;;;;27.14;42.92;99453.91;1996826;81;20926;-73
2021/06/23 12:39:23;;;;;;;2.59;0.74;;;;;;;27.56;42.29;99458.78;1996456;81;20217;-74
2021/06/23 12:42:26;;;;;;;0.91;0.68;;;;;;;27.82;42.62;99456.03;1996399;81;20970;-74
2021/06/23 12:45:29;;;;;;;2.36;0.64;;;;;;;28.08;41.94;99452.25;1994537;79;47021;-74
2021/06/23 12:48:32;;;;;;;2.81;0.65;;;;;;;28.17;41.97;99446.22;1992143;81;20211;-74
2021/06/23 12:51:35;;;;;;;2.00;0.70;;;;;;;28.47;38.89;99444.88;1991257;81;20329;-75
2021/06/23 12:54:37;;;;;;;1.50;0.70;;;;;;;28.74;40.71;99447.22;1991434;81;20194;-73
2021/06/23 12:57:40;;;;;;;3.00;0.84;;;;;;;28.63;40.22;99449.88;1990313;81;20605;-75
2021/06/23 13:00:43;;;;;;;2.38;0.60;;;;;;;28.11;39.99;99449.34;1991054;78;24616;-75
2021/06/23 13:03:46;;;;;;;0.69;0.52;;;;;;;27.56;42.08;99445.44;1996312;81;20182;-75
2021/06/23 13:06:49;;;;;;;1.66;0.99;;;;;;;27.03;43.45;99452.00;1996079;81;20679;-74
2021/06/23 13:09:52;;;;;;;2.38;0.73;;;;;;;26.60;44.32;99446.16;1996097;81;20221;-75
2021/06/23 13:12:54;;;;;;;6.43;0.70;;;;;;;26.19;44.75;99434.66;1995691;81;20442;-75
2021/06/23 13:16:00;;;;;;;1.56;0.75;;;;;;;25.95;45.69;99441.66;1993243;79;23105;-74
2021/06/23 13:19:03;;;;;;;3.83;0.69;;;;;;;25.79;45.83;99431.16;1990820;81;20219;-73
2021/06/23 13:22:06;;;;;;;1.58;0.77;;;;;;;25.55;46.95;99430.97;1990971;81;20236;-74
2021/06/23 13:25:08;;;;;;;2.49;0.80;;;;;;;25.48;47.60;99426.97;1991107;81;21274;-75
2021/06/23 13:28:12;;;;;;;2.60;0.60;;;;;;;25.44;46.67;99421.97;1990833;81;20678;-76
2021/06/23 13:31:14;;;;;;;2.58;1.05;;;;;;;25.36;47.16;99429.59;1990181;81;20707;-74
2021/06/23 13:34:17;;;;;;;2.24;0.61;;;;;;;25.34;47.36;99435.00;1991550;81;20178;-74
2021/06/23 13:37:20;;;;;;;4.28;0.70;;;;;;;25.16;47.58;99434.38;1991193;81;20189;-75
2021/06/23 13:40:24;;;;;;;9.06;0.60;;;;;;;24.98;48.06;99430.19;1992166;81;20654;-77
2021/06/23 13:43:28;;;;;;;1.89;0.80;;;;;;;24.83;47.98;99425.84;1993234;81;20320;-77
2021/06/23 13:46:30;;;;;;;1.85;0.60;;;;;;;24.75;49.16;99430.75;1993865;78;20992;-74
2021/06/23 13:49:33;;;;;;;2.76;1.10;;;;;;;24.84;49.76;99427.56;1996464;81;20368;-76
2021/06/23 13:52:37;;;;;;;0.99;0.60;;;;;;;24.96;47.87;99434.75;1996840;81;20178;-75
2021/06/23 13:55:41;;;;;;;1.26;0.60;;;;;;;25.02;48.55;99429.09;1996596;81;20162;-76
2021/06/23 13:58:44;;;;;;;1.75;1.00;;;;;;;24.94;48.86;99426.84;1996930;81;20170;-76
2021/06/23 14:01:46;;;;;;;2.24;0.70;;;;;;;24.85;48.33;99416.81;1992617;79;20212;-75
2021/06/23 14:04:49;;;;;;;4.01;0.77;;;;;;;24.75;48.57;99405.06;1991674;81;20692;-76
2021/06/23 14:07:53;;;;;;;0.82;0.70;;;;;;;24.56;49.79;99402.69;1991348;81;20179;-76
2021/06/23 14:10:55;;;;;;;3.39;0.89;;;;;;;24.60;51.91;99404.22;1991935;81;20285;-76
2021/06/23 14:13:58;;;;;;;2.04;0.70;;;;;;;24.59;51.83;99402.50;1990301;81;20281;-75
2021/06/23 14:17:01;;;;;;;1.63;1.04;;;;;;;24.73;53.30;99411.41;1994199;81;22141;-75
2021/06/23 14:20:06;;;;;;;1.61;0.80;;;;;;;25.08;50.04;99410.09;1996216;81;20960;-75
2021/06/23 14:23:09;;;;;;;0.90;0.80;;;;;;;25.59;49.12;99410.31;1995896;81;20212;-75
2021/06/23 14:26:12;;;;;;;1.69;0.70;;;;;;;26.04;47.90;99397.63;1996529;81;20558;-76
2021/06/23 14:29:14;;;;;;;2.14;0.80;;;;;;;26.38;46.49;99399.66;1996066;81;20191;-76
2021/06/23 14:32:17;;;;;;;1.38;0.70;;;;;;;26.76;44.09;99394.34;1991825;78;22787;-76
2021/06/23 14:35:22;;;;;;;1.21;0.60;;;;;;;27.09;44.20;99393.75;1991065;81;20285;-76
2021/06/23 14:38:25;;;;;;;1.26;0.70;;;;;;;27.34;42.83;99384.84;1991467;81;20171;-76
2021/06/23 14:41:28;;;;;;;2.61;0.76;;;;;;;27.56;42.51;99381.41;1991479;81;20193;-76
2021/06/23 14:44:31;;;;;;;2.08;0.81;;;;;;;27.22;41.98;99376.88;1996244;81;20272;-76
2021/06/23 14:47:33;;;;;;;3.33;0.88;;;;;;;26.64;42.19;99373.91;1994722;78;23585;-76